Welcome to Northern Hawkes Bay. New Zealand.
PWS Header
      nz Flag



Hit Counter


W3C Valid W3C Valid logo


    Wairoa

Select any of the Stations below to visit their websites.










Historic Data from Weather Underground
Select the location of interest below. Wairoa is the default. Please have patience, this Data is slow to load in.
Northern Hawkes Bay Historical Data
Daily Summary for May 4, 2017 Units:  English    Metric   Both
« Previous Day
Next Day »
Daily Weekly Monthly Yearly Custom
  High: Low: Average:
Temperature: 67.3 °F 48.4 °F 58.3 °F
Dew Point: 52.9 °F 39.6 °F 45.3 °F
Humidity: 88% 44% 63%
Wind Speed: 14.5mph 0mph 3.9mph
Wind Gust: 22.1mph - -
Wind- - WSW
Pressure: 30 in 29.8 in -
Precipitation: 0 in    
Historical Graphs
 
 
Tabular Data for May 4, 2017
Time Temperature Dew Point Pressure Wind Wind Speed Wind Gust Humidity Rainfall Rate (Hourly) solar
00:01 59.9 °F 48.6 °F 29.8 in NNW 11.4 mph 22.1 mph 66% 0 in 0 W/m2
00:06 59.9 °F 48.9 °F 29.8 in NNW 9.8 mph 20.6 mph 67% 0 in 0 W/m2
00:11 59.9 °F 48.9 °F 29.8 in North 9.2 mph 18.3 mph 67% 0 in 0 W/m2
00:16 59.9 °F 48.9 °F 29.8 in North 8.3 mph 17.4 mph 67% 0 in 0 W/m2
00:21 59.7 °F 48.7 °F 29.8 in NNW 6 mph 17.4 mph 67% 0 in 0 W/m2
00:26 59.5 °F 48.6 °F 29.8 in North 6 mph 17.4 mph 67% 0 in 0 W/m2
00:31 59.4 °F 48.7 °F 29.8 in North 9.8 mph 17.4 mph 68% 0 in 0 W/m2
00:36 59.2 °F 48.6 °F 29.8 in North 6.9 mph 17.4 mph 68% 0 in 0 W/m2
00:41 59.2 °F 48.6 °F 29.8 in North 11.4 mph 17.4 mph 68% 0 in 0 W/m2
00:46 59 °F 48.6 °F 29.8 in North 7.6 mph 16.8 mph 68% 0 in 0 W/m2
00:51 59 °F 48.9 °F 29.8 in North 9.2 mph 17.4 mph 69% 0 in 0 W/m2
00:56 58.8 °F 49.1 °F 29.8 in NNW 9.2 mph 17.4 mph 70% 0 in 0 W/m2
01:01 59 °F 49.3 °F 29.8 in NNW 11.4 mph 19.7 mph 70% 0 in 0 W/m2
01:06 59 °F 49.3 °F 29.8 in North 7.6 mph 19.7 mph 70% 0 in 0 W/m2
01:11 59.2 °F 49.5 °F 29.8 in North 8.3 mph 15.9 mph 70% 0 in 0 W/m2
01:16 59 °F 49.3 °F 29.8 in NNW 9.2 mph 15.2 mph 70% 0 in 0 W/m2
01:21 59 °F 49.3 °F 29.8 in NNW 7.6 mph 14.5 mph 70% 0 in 0 W/m2
01:26 59 °F 49.6 °F 29.8 in North 7.6 mph 15.9 mph 71% 0 in 0 W/m2
01:31 59.2 °F 49.5 °F 29.8 in North 7.6 mph 15.9 mph 70% 0 in 0 W/m2
01:36 59.4 °F 49.6 °F 29.8 in North 7.6 mph 15.9 mph 70% 0 in 0 W/m2
01:41 59.5 °F 49.8 °F 29.8 in North 7.6 mph 15.2 mph 70% 0 in 0 W/m2
01:46 59.5 °F 49.8 °F 29.8 in North 6.9 mph 13 mph 70% 0 in 0 W/m2
01:51 59.7 °F 49.5 °F 29.8 in North 7.6 mph 14.5 mph 69% 0 in 0 W/m2
01:56 59.9 °F 49.6 °F 29.8 in North 6.9 mph 14.5 mph 69% 0 in 0 W/m2
02:01 59.9 °F 49.6 °F 29.8 in NNE 6 mph 10.7 mph 69% 0 in 0 W/m2
02:06 59.9 °F 49.6 °F 29.8 in North 3.8 mph 10.7 mph 69% 0 in 0 W/m2
02:11 59.9 °F 50.2 °F 29.8 in North 3.8 mph 8.3 mph 70% 0 in 0 W/m2
02:16 59.7 °F 49.8 °F 29.8 in North 4.5 mph 7.6 mph 70% 0 in 0 W/m2
02:21 59.7 °F 50.4 °F 29.8 in NNW 3.1 mph 7.6 mph 71% 0 in 0 W/m2
02:26 59.5 °F 50.2 °F 29.8 in North 3.8 mph 9.2 mph 71% 0 in 0 W/m2
02:31 59.5 °F 50.2 °F 29.8 in North 3.1 mph 9.2 mph 71% 0 in 0 W/m2
02:36 59.2 °F 50.5 °F 29.8 in NNW 4.5 mph 6 mph 73% 0 in 0 W/m2
02:41 59 °F 50.7 °F 29.8 in NNW 5.4 mph 8.3 mph 74% 0 in 0 W/m2
02:46 58.8 °F 51.3 °F 29.8 in North 7.6 mph 10.7 mph 76% 0 in 0 W/m2
02:51 58.8 °F 51.3 °F 29.8 in North 4.5 mph 12.1 mph 76% 0 in 0 W/m2
02:56 58.6 °F 51.1 °F 29.8 in North 3.8 mph 12.1 mph 76% 0 in 0 W/m2
03:01 58.5 °F 51.3 °F 29.8 in North 6 mph 9.2 mph 77% 0 in 0 W/m2
03:06 58.5 °F 51.3 °F 29.8 in North 6.9 mph 11.4 mph 77% 0 in 0 W/m2
03:11 58.5 °F 51.6 °F 29.8 in North 6 mph 11.4 mph 78% 0 in 0 W/m2
03:16 58.5 °F 52 °F 29.8 in North 6 mph 9.8 mph 79% 0 in 0 W/m2
03:21 58.3 °F 52.2 °F 29.8 in North 5.4 mph 11.4 mph 80% 0 in 0 W/m2
03:26 58.3 °F 52.5 °F 29.8 in North 3.1 mph 11.4 mph 81% 0 in 0 W/m2
03:31 58.3 °F 52.9 °F 29.8 in North 3.1 mph 9.8 mph 82% 0 in 0 W/m2
03:36 57.7 °F 52.3 °F 29.8 in NNW 1.6 mph 6.9 mph 82% 0 in 0 W/m2
03:41 57.4 °F 52.3 °F 29.8 in NW 1.6 mph 5.4 mph 83% 0 in 0 W/m2
03:46 57 °F 52.5 °F 29.8 in NNW 0.7 mph 3.8 mph 85% 0 in 0 W/m2
03:51 56.7 °F 52.2 °F 29.8 in NW 1.6 mph 4.5 mph 85% 0 in 0 W/m2
03:56 56.3 °F 52.2 °F 29.8 in NW 1.6 mph 4.5 mph 86% 0 in 0 W/m2
04:01 56.1 °F 52 °F 29.8 in NW 0.7 mph 4.5 mph 86% 0 in 0 W/m2
04:06 55.9 °F 51.8 °F 29.8 in WNW 0.7 mph 3.1 mph 86% 0 in 0 W/m2
04:11 55.9 °F 52.2 °F 29.8 in Calm   3.8 mph 87% 0 in 0 W/m2
04:16 55.9 °F 52.2 °F 29.8 in Calm   3.8 mph 87% 0 in 0 W/m2
04:21 55.9 °F 52.2 °F 29.8 in NW 2.2 mph 3.8 mph 87% 0 in 0 W/m2
04:26 55.9 °F 52.2 °F 29.8 in NW 2.2 mph 3.8 mph 87% 0 in 0 W/m2
04:36 56.1 °F 52.3 °F 29.8 in NNW 2.2 mph 6 mph 87% 0 in 0 W/m2
04:41 56.3 °F 52.5 °F 29.8 in NW 0.7 mph 6 mph 87% 0 in 0 W/m2
04:46 56.5 °F 52.3 °F 29.8 in Calm   4.5 mph 86% 0 in 0 W/m2
04:50 56.5 °F 52.3 °F 29.8 in Calm   3.1 mph 86% 0 in 0 W/m2
04:55 56.5 °F 52.3 °F 29.8 in Calm   2.2 mph 86% 0 in 0 W/m2
05:01 56.5 °F 52.3 °F 29.8 in Calm   2.2 mph 86% 0 in 0 W/m2
05:06 56.3 °F 52.2 °F 29.8 in Calm   2.2 mph 86% 0 in 0 W/m2
05:11 56.3 °F 52.2 °F 29.8 in Calm   0.7 mph 86% 0 in 0 W/m2
05:16 56.1 °F 52.3 °F 29.8 in Calm   2.2 mph 87% 0 in 0 W/m2
05:21 56.1 °F 52.3 °F 29.8 in Calm   2.2 mph 87% 0 in 0 W/m2
05:26 56.1 °F 52.5 °F 29.8 in Calm     88% 0 in 0 W/m2
05:31 55.9 °F 52.3 °F 29.8 in Calm     88% 0 in 0 W/m2
05:36 55.9 °F 52.3 °F 29.8 in Calm     88% 0 in 0 W/m2
05:41 56.1 °F 52.5 °F 29.8 in Calm   2.2 mph 88% 0 in 0 W/m2
05:46 56.5 °F 52.7 °F 29.8 in WSW 1.6 mph 6.9 mph 87% 0 in 0 W/m2
05:51 57.4 °F 52.5 °F 29.8 in WSW 3.1 mph 7.6 mph 84% 0 in 0 W/m2
05:56 58.5 °F 52 °F 29.8 in WSW 3.1 mph 7.6 mph 79% 0 in 0 W/m2
06:01 58.6 °F 51.4 °F 29.8 in WSW 2.2 mph 6 mph 77% 0 in 0 W/m2
06:06 58.8 °F 49.1 °F 29.8 in WSW 3.8 mph 13.6 mph 70% 0 in 0 W/m2
06:11 59 °F 46.9 °F 29.8 in WSW 8.3 mph 15.2 mph 64% 0 in 0 W/m2
06:16 59 °F 46.4 °F 29.8 in West 3.1 mph 15.2 mph 63% 0 in 0 W/m2
06:21 58.8 °F 46.8 °F 29.8 in West 3.8 mph 13 mph 64% 0 in 0 W/m2
06:26 58.5 °F 46.2 °F 29.8 in West 6.9 mph 13 mph 64% 0 in 0 W/m2
06:31 58.5 °F 45.9 °F 29.8 in WSW 14.5 mph 19.7 mph 63% 0 in 0 W/m2
06:32 58.5 °F 45.5 °F 29.8 in WSW 7.6 mph 19.7 mph 62% 0 in 0 W/m2
06:38 58.5 °F 45.5 °F 29.8 in WSW 6.9 mph 19.7 mph 62% 0 in 0 W/m2
06:43 58.5 °F 45.1 °F 29.9 in WSW 5.4 mph 16.8 mph 61% 0 in 0 W/m2
06:49 58.3 °F 44.4 °F 29.9 in WSW 7.6 mph 19.7 mph 60% 0 in 0 W/m2
06:54 58.1 °F 44.2 °F 29.9 in WSW 9.8 mph 21.3 mph 60% 0 in 0 W/m2
06:59 56.3 °F 45.5 °F 29.9 in WSW 7.6 mph 21.3 mph 67% 0 in 0 W/m2
07:04 55.2 °F 45.7 °F 29.9 in WSW 4.5 mph 14.5 mph 70% 0 in 1 W/m2
07:09 55 °F 45.1 °F 29.9 in WSW 3.1 mph 14.5 mph 69% 0 in 3 W/m2
07:14 55.4 °F 44.2 °F 29.9 in WSW 2.2 mph 13 mph 66% 0 in 7 W/m2
07:19 55.4 °F 43.3 °F 29.9 in WSW 2.2 mph 12.1 mph 64% 0 in 11 W/m2
07:24 55.4 °F 42.3 °F 29.9 in Calm   9.2 mph 61% 0 in 14 W/m2
07:29 55.6 °F 41.5 °F 29.9 in West 6.9 mph 11.4 mph 59% 0 in 26 W/m2
07:35 55.9 °F 40.8 °F 29.9 in West 4.5 mph 14.5 mph 57% 0 in 34 W/m2
07:40 56.5 °F 40.5 °F 29.9 in WSW 6 mph 15.9 mph 55% 0 in 46 W/m2
07:46 56.5 °F 41 °F 29.9 in WSW 3.1 mph 15.9 mph 56% 0 in 43 W/m2
07:51 57 °F 41.5 °F 29.9 in Calm   12.1 mph 56% 0 in 152 W/m2
07:52 57.4 °F 41.4 °F 29.9 in West 4.5 mph 10.7 mph 55% 0 in 154 W/m2
07:57 58.1 °F 41.5 °F 29.9 in WSW 6 mph 14.5 mph 54% 0.01 in 162 W/m2
08:02 58.6 °F 42.1 °F 29.9 in WSW 3.8 mph 14.5 mph 54% 0.01 in 167 W/m2
08:18 59.7 °F 41.2 °F 29.9 in WSW 1.6 mph 9.2 mph 50% 0.01 in 201 W/m2
08:23 59.9 °F 41.2 °F 29.9 in WSW 2.2 mph 10.7 mph 50% 0.01 in 214 W/m2
08:28 59.9 °F 40.6 °F 29.9 in WNW 1.6 mph 12.1 mph 49% 0.01 in 224 W/m2
08:33 59.9 °F 40.3 °F 29.9 in WNW 3.1 mph 12.1 mph 48% 0.01 in 237 W/m2
08:38 59.7 °F 39.9 °F 29.9 in West 5.4 mph 11.4 mph 48% 0.01 in 249 W/m2
08:43 59.9 °F 40.6 °F 29.9 in West 0.7 mph 10.7 mph 49% 0.01 in 264 W/m2
08:48 59.9 °F 39.6 °F 29.9 in West 0.7 mph 10.7 mph 47% 0.01 in 277 W/m2
08:53 59.9 °F 40.3 °F 29.9 in Calm   13 mph 48% 0 in 290 W/m2
08:58 59.9 °F 40.3 °F 29.9 in West 3.1 mph 13 mph 48% 0 in 301 W/m2
09:03 59.9 °F 39.6 °F 29.9 in West 4.5 mph 11.4 mph 47% 0 in 311 W/m2
09:08 59.9 °F 39.6 °F 29.9 in WSW 0.7 mph 11.4 mph 47% 0 in 318 W/m2
09:13 60.6 °F 41.9 °F 29.9 in Calm   11.4 mph 50% 0 in 327 W/m2
09:18 61.2 °F 40.3 °F 29.9 in WSW 1.6 mph 9.8 mph 46% 0 in 332 W/m2
09:23 61.2 °F 40.8 °F 29.9 in WSW 7.6 mph 9.8 mph 47% 0 in 334 W/m2
09:28 60.1 °F 40.3 °F 29.9 in WSW 8.3 mph 14.5 mph 48% 0 in 336 W/m2
09:33 59.9 °F 41.2 °F 29.9 in WSW 6.9 mph 14.5 mph 50% 0 in 217 W/m2
09:38 60.4 °F 41.7 °F 29.9 in WSW 7.6 mph 12.1 mph 50% 0 in 104 W/m2
09:43 60.1 °F 40.8 °F 29.9 in WSW 7.6 mph 14.5 mph 49% 0 in 65 W/m2
09:48 59.9 °F 41.2 °F 29.9 in WSW 6 mph 16.8 mph 50% 0 in 62 W/m2
09:53 60.4 °F 41.7 °F 29.9 in West 2.2 mph 16.8 mph 50% 0 in 59 W/m2
09:58 60.4 °F 42.3 °F 29.9 in West 8.3 mph 14.5 mph 51% 0 in 58 W/m2
10:04 60.4 °F 42.6 °F 29.9 in WSW 6.9 mph 14.5 mph 52% 0 in 58 W/m2
10:09 61.2 °F 42.4 °F 29.9 in WSW 7.6 mph 13.6 mph 50% 0 in 59 W/m2
10:14 60.8 °F 42.6 °F 29.9 in West 5.4 mph 12.1 mph 51% 0 in 64 W/m2
10:17 61 °F 42.6 °F 29.9 in West 5.4 mph 12.1 mph 51% 0 in 81 W/m2
10:18 61 °F 43.2 °F 29.9 in WSW 5.4 mph 12.1 mph 52% 0 in 94 W/m2
10:23 61 °F 42.3 °F 29.9 in SW 9.8 mph 20.6 mph 50% 0 in 248 W/m2
10:28 60.8 °F 42.6 °F 29.9 in SW 12.1 mph 20.6 mph 51% 0 in 358 W/m2
10:33 61 °F 42.3 °F 29.9 in SW 6.9 mph 16.8 mph 50% 0 in 376 W/m2
10:38 62.1 °F 44.2 °F 29.9 in WSW 4.5 mph 16.8 mph 52% 0 in 380 W/m2
10:43 61.3 °F 45 °F 29.9 in WSW 6.9 mph 17.4 mph 55% 0 in 381 W/m2
10:48 60.8 °F 45 °F 29.9 in SW 9.8 mph 17.4 mph 56% 0 in 384 W/m2
10:53 60.4 °F 46.6 °F 29.9 in SW 6.9 mph 15.2 mph 60% 0 in 390 W/m2
10:58 60.6 °F 46.8 °F 29.9 in SW 6.9 mph 15.2 mph 60% 0 in 391 W/m2
11:03 60.6 °F 46.2 °F 29.9 in SW 9.2 mph 13 mph 59% 0 in 396 W/m2
11:08 60.3 °F 47.7 °F 29.9 in SW 7.6 mph 13 mph 63% 0 in 398 W/m2
11:27 60.6 °F 46.8 °F 29.9 in SW 6.9 mph 13 mph 60% 0 in 406 W/m2
11:32 60.4 °F 46 °F 29.9 in SW 6 mph 10.7 mph 59% 0 in 409 W/m2
11:37 60.3 °F 46.2 °F 29.9 in SW 6.9 mph 10.7 mph 60% 0 in 401 W/m2
11:42 60.3 °F 47.1 °F 29.9 in SW 4.5 mph 10.7 mph 62% 0 in 398 W/m2
11:47 60.6 °F 45 °F 29.9 in SW 7.6 mph 12.1 mph 56% 0 in 401 W/m2
11:52 60.6 °F 45 °F 29.9 in SW 6 mph 12.1 mph 56% 0 in 399 W/m2
11:57 60.6 °F 45.9 °F 29.9 in SSW 4.5 mph 13 mph 58% 0 in 397 W/m2
12:02 60.1 °F 45.3 °F 29.9 in SW 6 mph 13 mph 58% 0 in 398 W/m2
12:07 61.2 °F 46.2 °F 29.9 in SW 6 mph 12.1 mph 58% 0 in 407 W/m2
12:12 61.5 °F 46.2 °F 29.9 in SSW 4.5 mph 9.8 mph 57% 0 in 443 W/m2
12:17 61.9 °F 46.6 °F 29.9 in SSW 3.1 mph 9.8 mph 57% 0 in 407 W/m2
12:22 61.7 °F 45.3 °F 29.9 in SSW 5.4 mph 11.4 mph 55% 0 in 388 W/m2
12:27 62.1 °F 46.2 °F 29.9 in SW 6.9 mph 11.4 mph 56% 0 in 385 W/m2
12:32 61.5 °F 46.2 °F 29.9 in SSW 6 mph 9.8 mph 57% 0 in 379 W/m2
12:37 62.2 °F 45.9 °F 29.9 in SSW 3.8 mph 9.8 mph 55% 0 in 377 W/m2
12:42 62.8 °F 45.3 °F 29.9 in SSW 4.5 mph 9.2 mph 53% 0 in 376 W/m2
12:59 63.1 °F 45.1 °F 29.9 in SW 3.1 mph 11.4 mph 52% 0 in 363 W/m2
13:04 64 °F 46 °F 29.9 in SW 5.4 mph 9.8 mph 52% 0 in 356 W/m2
13:09 63.5 °F 45.1 °F 29.9 in SW 5.4 mph 9.2 mph 51% 0 in 357 W/m2
13:14 63 °F 44.6 °F 29.9 in SW 8.3 mph 12.1 mph 51% 0 in 400 W/m2
13:19 62.4 °F 44.6 °F 29.9 in SW 7.6 mph 12.1 mph 52% 0 in 342 W/m2
13:24 62.4 °F 44.6 °F 29.9 in SW 5.4 mph 12.1 mph 52% 0 in 317 W/m2
13:29 63.1 °F 44.8 °F 29.9 in SW 7.6 mph 11.4 mph 51% 0 in 296 W/m2
13:34 63.1 °F 44.8 °F 29.9 in SW 3.8 mph 11.4 mph 51% 0 in 271 W/m2
13:39 63.1 °F 43.7 °F 29.9 in SW 5.4 mph 11.4 mph 49% 0 in 181 W/m2
13:44 63.9 °F 45 °F 29.9 in SSW 3.8 mph 10.7 mph 50% 0 in 156 W/m2
13:49 64.8 °F 44.6 °F 29.9 in SSW 6 mph 10.7 mph 48% 0 in 129 W/m2
13:54 65.3 °F 45.1 °F 29.9 in SSW 5.4 mph 7.6 mph 48% 0 in 88 W/m2
13:59 65.1 °F 44.4 °F 29.9 in SSW 3.1 mph 9.2 mph 47% 0 in 66 W/m2
14:04 65.1 °F 44.4 °F 29.9 in SSW 2.2 mph 9.2 mph 47% 0 in 69 W/m2
14:09 65.5 °F 44.8 °F 29.9 in South 1.6 mph 7.6 mph 47% 0 in 67 W/m2
14:14 67.3 °F 44.6 °F 29.9 in SSE 4.5 mph 7.6 mph 44% 0 in 74 W/m2
14:19 66 °F 44.1 °F 29.9 in SSW 4.5 mph 10.7 mph 45% 0 in 79 W/m2
14:24 64.9 °F 43.7 °F 29.9 in SW 6.9 mph 10.7 mph 46% 0 in 90 W/m2
14:29 64.4 °F 43.2 °F 29.9 in SW 8.3 mph 10.7 mph 46% 0 in 80 W/m2
14:34 64 °F 43 °F 29.9 in SW 7.6 mph 10.7 mph 46% 0 in 82 W/m2
14:39 64.8 °F 44.1 °F 29.9 in SW 3.8 mph 10.7 mph 47% 0 in 76 W/m2
14:44 65.1 °F 45 °F 29.9 in SW 4.5 mph 9.8 mph 48% 0 in 79 W/m2
14:48 63.9 °F 43.9 °F 29.9 in SW 6.9 mph 9.8 mph 48% 0 in 82 W/m2
14:53 63.9 °F 43.9 °F 29.9 in SW 4.5 mph 9.8 mph 48% 0 in 79 W/m2
14:58 64.8 °F 44.6 °F 29.9 in SW 4.5 mph 9.2 mph 48% 0 in 78 W/m2
15:03 64.6 °F 43.9 °F 29.9 in SW 4.5 mph 9.2 mph 47% 0 in 86 W/m2
15:08 63.1 °F 44.2 °F 29.9 in SW 3.8 mph 9.2 mph 50% 0 in 54 W/m2
15:13 61.7 °F 43.9 °F 29.9 in WSW 3.8 mph 9.2 mph 52% 0 in 184 W/m2
15:18 63.3 °F 44.4 °F 29.9 in WSW 5.4 mph 9.2 mph 50% 0 in 57 W/m2
15:23 61.5 °F 43.2 °F 29.9 in WSW 3.8 mph 9.2 mph 51% 0 in 51 W/m2
15:28 60.6 °F 44.4 °F 29.9 in WSW 3.8 mph 9.2 mph 55% 0 in 58 W/m2
15:33 60.3 °F 44.4 °F 29.9 in WSW 1.6 mph 6 mph 56% 0 in 89 W/m2
15:38 60.1 °F 43.9 °F 29.9 in WSW 3.8 mph 6.9 mph 55% 0 in 99 W/m2
15:43 60.1 °F 43.9 °F 29.9 in WSW 1.6 mph 6.9 mph 55% 0 in 93 W/m2
15:48 60.3 °F 44.1 °F 29.9 in WSW 3.8 mph 6 mph 55% 0 in 55 W/m2
15:53 60.3 °F 44.1 °F 29.9 in WSW 2.2 mph 6 mph 55% 0 in 57 W/m2
15:58 60.1 °F 43.9 °F 29.8 in WSW 1.6 mph 5.4 mph 55% 0 in 42 W/m2
16:03 60.1 °F 43.3 °F 29.8 in SW 0.7 mph 3.8 mph 54% 0 in 40 W/m2
16:08 61 °F 43.7 °F 29.9 in SW 4.5 mph 6 mph 53% 0 in 40 W/m2
16:13 61 °F 43.2 °F 29.8 in WSW 0.7 mph 6 mph 52% 0 in 36 W/m2
16:18 60.4 °F 43.2 °F 29.8 in Calm   6 mph 53% 0 in 31 W/m2
16:23 61.3 °F 44.6 °F 29.8 in West 2.2 mph 5.4 mph 54% 0 in 51 W/m2
16:28 61.9 °F 44.6 °F 29.8 in Calm   3.1 mph 53% 0 in 42 W/m2
16:33 60.8 °F 44.1 °F 29.8 in Calm   3.1 mph 54% 0 in 39 W/m2
16:38 60.1 °F 44.2 °F 29.8 in Calm     56% 0 in 40 W/m2
16:43 59.9 °F 45.7 °F 29.8 in Calm     59% 0 in 39 W/m2
16:48 60.4 °F 46 °F 29.8 in Calm     59% 0 in 37 W/m2
16:53 61.7 °F 46.2 °F 29.8 in Calm     57% 0 in 23 W/m2
16:58 61.2 °F 45.3 °F 29.8 in East 0.7 mph 1.6 mph 56% 0 in 22 W/m2
17:03 60.4 °F 45.7 °F 29.9 in Calm   1.6 mph 58% 0 in 12 W/m2
17:08 60.1 °F 45.7 °F 29.9 in Calm   1.6 mph 59% 0 in 6 W/m2
17:13 59.2 °F 45.9 °F 29.8 in Calm   1.6 mph 61% 0 in 3 W/m2
17:18 58.1 °F 46.4 °F 29.9 in Calm   3.8 mph 65% 0 in 1 W/m2
17:23 57.4 °F 46.6 °F 29.9 in NW 0.7 mph 3.8 mph 67% 0 in 0 W/m2
17:28 56.7 °F 46.6 °F 29.9 in WNW 1.6 mph 3.8 mph 69% 0 in 0 W/m2
17:33 56.3 °F 46.2 °F 29.9 in Calm   2.2 mph 69% 0 in 0 W/m2
17:38 56.3 °F 46.2 °F 29.9 in Calm   2.2 mph 69% 0 in 0 W/m2
17:43 56.1 °F 46.6 °F 29.9 in Calm   1.6 mph 70% 0 in 0 W/m2
17:48 55.9 °F 46.8 °F 29.9 in Calm   1.6 mph 71% 0 in 0 W/m2
17:53 55.8 °F 46.6 °F 29.9 in Calm   0.7 mph 71% 0 in 0 W/m2
17:58 55.6 °F 46.2 °F 29.9 in Calm     71% 0 in 0 W/m2
18:03 55.6 °F 45.7 °F 29.9 in West 0.7 mph 3.1 mph 69% 0 in 0 W/m2
18:08 56.1 °F 45.3 °F 29.9 in West 4.5 mph 6 mph 67% 0 in 0 W/m2
18:13 56.7 °F 45 °F 29.9 in West 2.2 mph 6.9 mph 65% 0 in 0 W/m2
18:18 57.2 °F 43.5 °F 29.9 in West 2.2 mph 10.7 mph 60% 0 in 0 W/m2
18:23 57.2 °F 43.5 °F 29.9 in WSW 3.8 mph 10.7 mph 60% 0 in 0 W/m2
18:28 57.2 °F 43 °F 29.9 in WSW 6.9 mph 10.7 mph 59% 0 in 0 W/m2
18:33 57.2 °F 43 °F 29.9 in WSW 6 mph 10.7 mph 59% 0 in 0 W/m2
18:38 57.2 °F 42.6 °F 29.9 in West 3.1 mph 10.7 mph 58% 0 in 0 W/m2
18:43 57.2 °F 42.6 °F 29.9 in West 2.2 mph 9.2 mph 58% 0 in 0 W/m2
18:48 57.2 °F 42.6 °F 29.9 in West 3.8 mph 8.3 mph 58% 0 in 0 W/m2
18:53 57.4 °F 42.6 °F 29.9 in West 3.8 mph 9.8 mph 58% 0 in 0 W/m2
18:58 57.6 °F 42.1 °F 29.9 in West 1.6 mph 12.1 mph 56% 0 in 0 W/m2
19:03 57.4 °F 41.7 °F 29.9 in West 6.9 mph 12.1 mph 56% 0 in 0 W/m2
19:08 57.7 °F 41.2 °F 29.9 in West 3.1 mph 12.1 mph 54% 0 in 0 W/m2
19:13 57.4 °F 40.8 °F 29.9 in West 3.8 mph 12.1 mph 54% 0 in 0 W/m2
19:18 57.2 °F 41.2 °F 29.9 in West 3.1 mph 6 mph 55% 0 in 0 W/m2
19:23 56.7 °F 41.2 °F 29.9 in West 0.7 mph 6 mph 56% 0 in 0 W/m2
19:28 56.5 °F 41 °F 29.9 in WNW 0.7 mph 5.4 mph 56% 0 in 0 W/m2
19:33 56.3 °F 41.4 °F 29.9 in Calm   6.9 mph 57% 0 in 0 W/m2
19:38 55.8 °F 41.2 °F 29.9 in WNW 0.7 mph 6.9 mph 58% 0 in 0 W/m2
19:43 55.6 °F 41 °F 29.9 in West 1.6 mph 6 mph 58% 0 in 0 W/m2
19:49 55.6 °F 41 °F 29.9 in WSW 5.4 mph 8.3 mph 58% 0 in 0 W/m2
19:54 55.9 °F 40.8 °F 29.9 in West 3.1 mph 8.3 mph 57% 0 in 0 W/m2
19:59 56.3 °F 41.4 °F 29.9 in West 2.2 mph 8.3 mph 57% 0 in 0 W/m2
20:04 56.5 °F 41 °F 29.9 in West 1.6 mph 14.5 mph 56% 0 in 0 W/m2
20:09 56.5 °F 41 °F 29.9 in West 2.2 mph 14.5 mph 56% 0 in 0 W/m2
20:14 56.3 °F 41.4 °F 29.9 in Calm   13.6 mph 57% 0 in 0 W/m2
20:19 55.9 °F 40.8 °F 29.9 in West 3.8 mph 7.6 mph 57% 0 in 0 W/m2
20:24 55.9 °F 40.8 °F 29.9 in West 2.2 mph 6 mph 57% 0 in 0 W/m2
20:29 55.8 °F 40.8 °F 29.9 in West 3.1 mph 8.3 mph 57% 0 in 0 W/m2
20:34 55.8 °F 40.8 °F 29.9 in West 6.9 mph 11.4 mph 57% 0 in 0 W/m2
20:39 55.8 °F 40.8 °F 29.9 in West 2.2 mph 11.4 mph 57% 0 in 0 W/m2
20:40 55.8 °F 40.8 °F 29.9 in West 4.5 mph 11.4 mph 57% 0 in 0 W/m2
20:46 55.8 °F 40.8 °F 29.9 in West 4.5 mph 9.8 mph 57% 0 in 0 W/m2
20:51 55.6 °F 40.6 °F 29.9 in West 5.4 mph 10.7 mph 57% 0 in 0 W/m2
20:56 55.8 °F 40.3 °F 29.9 in WSW 6 mph 10.7 mph 56% 0 in 0 W/m2
21:01 55.9 °F 40.5 °F 29.9 in WSW 3.1 mph 13.6 mph 56% 0 in 0 W/m2
21:06 55.8 °F 40.3 °F 29.9 in WSW 2.2 mph 13.6 mph 56% 0 in 0 W/m2
21:12 55.6 °F 40.6 °F 29.9 in WSW 0.7 mph 9.8 mph 57% 0 in 0 W/m2
21:17 55.4 °F 40.5 °F 29.9 in West 2.2 mph 9.2 mph 57% 0 in 0 W/m2
21:22 55.4 °F 40.5 °F 29.9 in West 4.5 mph 11.4 mph 57% 0 in 0 W/m2
21:27 55.6 °F 40.1 °F 29.9 in West 3.1 mph 11.4 mph 56% 0 in 0 W/m2
21:32 55.6 °F 40.6 °F 29.9 in West 3.8 mph 8.3 mph 57% 0 in 0 W/m2
21:37 55.4 °F 40.5 °F 29.9 in West 1.6 mph 7.6 mph 57% 0 in 0 W/m2
21:42 55.2 °F 40.6 °F 29.9 in West 3.8 mph 8.3 mph 58% 0 in 0 W/m2
21:47 55.2 °F 41.2 °F 29.9 in West 1.6 mph 9.8 mph 59% 0 in 0 W/m2
21:52 54.9 °F 40.8 °F 29.9 in West 3.8 mph 9.8 mph 59% 0 in 0 W/m2
21:57 55.4 °F 40.8 °F 29.9 in WSW 2.2 mph 9.8 mph 58% 0 in 0 W/m2
22:02 55.2 °F 41.2 °F 29.9 in Calm   9.8 mph 59% 0 in 0 W/m2
22:07 54.1 °F 41 °F 29.9 in Calm   4.5 mph 61% 0 in 0 W/m2
22:12 53.1 °F 40.8 °F 29.9 in Calm   2.2 mph 63% 0 in 0 W/m2
22:17 52.3 °F 40.5 °F 29.9 in Calm   1.6 mph 64% 0 in 0 W/m2
22:22 51.8 °F 40.5 °F 29.9 in Calm   3.1 mph 65% 0 in 0 W/m2
22:27 51.1 °F 40.8 °F 29.9 in NNE 3.1 mph 3.8 mph 68% 0 in 0 W/m2
22:32 50.7 °F 41.7 °F 29.9 in NNW 1.6 mph 5.4 mph 71% 0 in 0 W/m2
22:37 50.2 °F 41.9 °F 29.9 in NNW 4.5 mph 6 mph 73% 0 in 0 W/m2
22:42 50.2 °F 41.9 °F 29.9 in NNW 3.1 mph 6 mph 73% 0 in 0 W/m2
22:47 49.8 °F 42.3 °F 29.9 in NW 2.2 mph 6 mph 75% 0 in 0 W/m2
22:52 49.6 °F 42.1 °F 29.9 in NW 2.2 mph 4.5 mph 75% 0 in 0 W/m2
22:57 49.5 °F 42.3 °F 29.9 in NW 3.1 mph 5.4 mph 76% 0 in 0 W/m2
23:02 49.3 °F 42.4 °F 29.9 in NW 3.1 mph 5.4 mph 77% 0 in 0 W/m2
23:07 49.3 °F 43.2 °F 29.9 in NW 3.8 mph 5.4 mph 79% 0 in 0 W/m2
23:12 49.1 °F 43.2 °F 29.9 in NW 3.1 mph 6 mph 80% 0 in 0 W/m2
23:17 49.1 °F 43.2 °F 29.9 in NW 3.8 mph 6 mph 80% 0 in 0 W/m2
23:22 49.1 °F 43.5 °F 29.9 in NW 3.1 mph 6 mph 81% 0 in 0 W/m2
23:27 48.9 °F 43.7 °F 29.9 in NNW 3.1 mph 6 mph 82% 0 in 0 W/m2
23:32 49.1 °F 43.9 °F 30 in NW 2.2 mph 6 mph 82% 0 in 0 W/m2
23:37 48.7 °F 43.9 °F 30 in NW 3.1 mph 6 mph 83% 0 in 0 W/m2
23:42 48.7 °F 44.1 °F 30 in NW 3.8 mph 6 mph 84% 0 in 0 W/m2
23:47 48.6 °F 44.1 °F 30 in NW 2.2 mph 6.9 mph 84% 0 in 0 W/m2
23:52 48.4 °F 44.1 °F 30 in NW 3.1 mph 6.9 mph 85% 0 in 0 W/m2
23:57 48.6 °F 44.2 °F 30 in NW 2.2 mph 3.8 mph 85% 0 in 0 W/m2
Northern Hawkes Bay. New Zealand Historic Data
Compliments of Weather Underground - 2.25 mb